PWSweather.com
Personal Weather Stations
Station Observations
DW1039
Liberty & Fairfield Townships, Hamilton, OH 45011

Liberty & Fairfield TownshipsHamilton, OH 45011

Lat: 39.3933, Lon: -84.477

Elevation: 780

Station Type: Davis Vantage Pro2 (Daytime Fan Aspirated)

http://www.lfweathercenter.com/

High Low Average
Temperature 28.8°F-1.8°C 17.2°F-8.2°C 22.2°F-5.4°C
Dew Point 16.3°F-8.7°C 10.7°F-11.8°C 13.6°F-10.2°C
Winds 16.0 mph 25.7 kmh Calm Calm 5.0 mph W8.0 kmh W
Wind Gusts 21.0 mph33.8 kmh 3.0 mph4.8 kmh 12.0 mph19.3 kmh
Humidity 82% 52% 70%
Pressure 30.47 in1031.8 mb 30.31 in1026.4 mb -
Precipitation 0.00 in0.0 mm - -
Hour Temp Dew Point Humidity Winds Wind Gusts Pressure Precip Precip Rate Daily Precip Total
12:01 AM 21.7°F-5.7°C 15.0°F-9.4°C 75% 3.0 mph WSW4.8 kmh WSW 18.0 mph29.0 kmh 30.31 in1026.4 mb 0.00 in0.0 mm 0.00 in/hr0.0 mm/hr 0.00 in0.0 mm
12:11 AM 21.7°F-5.7°C 15.0°F-9.4°C 75% 10.0 mph NW16.1 kmh NW 14.0 mph22.5 kmh 30.31 in1026.4 mb 0.00 in0.0 mm 0.00 in/hr0.0 mm/hr 0.00 in0.0 mm
12:21 AM 21.8°F-5.7°C 14.8°F-9.6°C 74% 5.0 mph W8.0 kmh W 15.0 mph24.1 kmh 30.32 in1026.8 mb 0.00 in0.0 mm 0.00 in/hr0.0 mm/hr 0.00 in0.0 mm
12:31 AM 21.7°F-5.7°C 14.4°F-9.8°C 73% 9.0 mph WSW14.5 kmh WSW 15.0 mph24.1 kmh 30.32 in1026.8 mb 0.00 in0.0 mm 0.00 in/hr0.0 mm/hr 0.00 in0.0 mm
12:41 AM 21.8°F-5.7°C 14.5°F-9.7°C 73% 6.0 mph NW9.7 kmh NW 15.0 mph24.1 kmh 30.32 in1026.8 mb 0.00 in0.0 mm 0.00 in/hr0.0 mm/hr 0.00 in0.0 mm
12:51 AM 21.9°F-5.6°C 14.9°F-9.5°C 74% 9.0 mph WSW14.5 kmh WSW 13.0 mph20.9 kmh 30.32 in1026.8 mb 0.00 in0.0 mm 0.00 in/hr0.0 mm/hr 0.00 in0.0 mm
01:01 AM 22.0°F-5.6°C 15.0°F-9.4°C 74% 4.0 mph NW6.4 kmh NW 12.0 mph19.3 kmh 30.33 in1027.1 mb 0.00 in0.0 mm 0.00 in/hr0.0 mm/hr 0.00 in0.0 mm
01:11 AM 22.0°F-5.6°C 15.0°F-9.4°C 74% 3.0 mph WSW4.8 kmh WSW 10.0 mph16.1 kmh 30.33 in1027.1 mb 0.00 in0.0 mm 0.00 in/hr0.0 mm/hr 0.00 in0.0 mm
01:20 AM 22.0°F-5.6°C 15.3°F-9.3°C 75% 6.0 mph NW9.7 kmh NW 14.0 mph22.5 kmh 30.33 in1027.1 mb 0.00 in0.0 mm 0.00 in/hr0.0 mm/hr 0.00 in0.0 mm
01:30 AM 21.9°F-5.6°C 14.9°F-9.5°C 74% 4.0 mph WSW6.4 kmh WSW 15.0 mph24.1 kmh 30.33 in1027.1 mb 0.00 in0.0 mm 0.00 in/hr0.0 mm/hr 0.00 in0.0 mm
01:40 AM 21.9°F-5.6°C 14.9°F-9.5°C 74% 5.0 mph W8.0 kmh W 10.0 mph16.1 kmh 30.33 in1027.1 mb 0.00 in0.0 mm 0.00 in/hr0.0 mm/hr 0.00 in0.0 mm
01:50 AM 21.8°F-5.7°C 14.8°F-9.6°C 74% 3.0 mph WNW4.8 kmh WNW 13.0 mph20.9 kmh 30.33 in1027.1 mb 0.00 in0.0 mm 0.00 in/hr0.0 mm/hr 0.00 in0.0 mm
02:01 AM 21.7°F-5.7°C 14.7°F-9.6°C 74% 5.0 mph W8.0 kmh W 15.0 mph24.1 kmh 30.33 in1027.1 mb 0.00 in0.0 mm 0.00 in/hr0.0 mm/hr 0.00 in0.0 mm
02:10 AM 21.5°F-5.8°C 14.5°F-9.7°C 74% 9.0 mph NW14.5 kmh NW 14.0 mph22.5 kmh 30.34 in1027.4 mb 0.00 in0.0 mm 0.00 in/hr0.0 mm/hr 0.00 in0.0 mm
02:20 AM 21.5°F-5.8°C 14.5°F-9.7°C 74% 4.0 mph W6.4 kmh W 17.0 mph27.4 kmh 30.35 in1027.8 mb 0.00 in0.0 mm 0.00 in/hr0.0 mm/hr 0.00 in0.0 mm
02:30 AM 21.4°F-5.9°C 14.7°F-9.6°C 75% 7.0 mph WNW11.3 kmh WNW 18.0 mph29.0 kmh 30.35 in1027.8 mb 0.00 in0.0 mm 0.00 in/hr0.0 mm/hr 0.00 in0.0 mm
02:40 AM 21.3°F-5.9°C 14.6°F-9.7°C 75% 11.0 mph WSW17.7 kmh WSW 13.0 mph20.9 kmh 30.35 in1027.8 mb 0.00 in0.0 mm 0.00 in/hr0.0 mm/hr 0.00 in0.0 mm
02:50 AM 21.2°F-6.0°C 14.5°F-9.7°C 75% 2.0 mph W3.2 kmh W 14.0 mph22.5 kmh 30.35 in1027.8 mb 0.00 in0.0 mm 0.00 in/hr0.0 mm/hr 0.00 in0.0 mm
03:00 AM 21.2°F-6.0°C 14.5°F-9.7°C 75% 3.0 mph W4.8 kmh W 15.0 mph24.1 kmh 30.36 in1028.1 mb 0.00 in0.0 mm 0.00 in/hr0.0 mm/hr 0.00 in0.0 mm
03:10 AM 21.0°F-6.1°C 14.3°F-9.8°C 75% 5.0 mph NW8.0 kmh NW 14.0 mph22.5 kmh 30.36 in1028.1 mb 0.00 in0.0 mm 0.00 in/hr0.0 mm/hr 0.00 in0.0 mm
03:20 AM 20.7°F-6.3°C 14.4°F-9.8°C 76% 4.0 mph NW6.4 kmh NW 8.0 mph12.9 kmh 30.36 in1028.1 mb 0.00 in0.0 mm 0.00 in/hr0.0 mm/hr 0.00 in0.0 mm
03:30 AM 20.3°F-6.5°C 14.0°F-10.0°C 76% 5.0 mph NW8.0 kmh NW 11.0 mph17.7 kmh 30.37 in1028.4 mb 0.00 in0.0 mm 0.00 in/hr0.0 mm/hr 0.00 in0.0 mm
03:40 AM 20.2°F-6.6°C 13.6°F-10.2°C 75% 12.0 mph WSW19.3 kmh WSW 13.0 mph20.9 kmh 30.37 in1028.4 mb 0.00 in0.0 mm 0.00 in/hr0.0 mm/hr 0.00 in0.0 mm
03:50 AM 19.8°F-6.8°C 13.2°F-10.4°C 75% 9.0 mph WSW14.5 kmh WSW 11.0 mph17.7 kmh 30.37 in1028.4 mb 0.00 in0.0 mm 0.00 in/hr0.0 mm/hr 0.00 in0.0 mm
04:00 AM 19.7°F-6.8°C 13.1°F-10.5°C 75% 3.0 mph W4.8 kmh W 13.0 mph20.9 kmh 30.37 in1028.4 mb 0.00 in0.0 mm 0.00 in/hr0.0 mm/hr 0.00 in0.0 mm
04:10 AM 19.4°F-7.0°C 13.1°F-10.5°C 76% 3.0 mph WNW4.8 kmh WNW 14.0 mph22.5 kmh 30.37 in1028.4 mb 0.00 in0.0 mm 0.00 in/hr0.0 mm/hr 0.00 in0.0 mm
04:20 AM 19.4°F-7.0°C 13.1°F-10.5°C 76% 4.0 mph N6.4 kmh N 14.0 mph22.5 kmh 30.37 in1028.4 mb 0.00 in0.0 mm 0.00 in/hr0.0 mm/hr 0.00 in0.0 mm
04:30 AM 19.2°F-7.1°C 13.2°F-10.4°C 77% 4.0 mph W6.4 kmh W 11.0 mph17.7 kmh 30.37 in1028.4 mb 0.00 in0.0 mm 0.00 in/hr0.0 mm/hr 0.00 in0.0 mm
04:50 AM 19.1°F-7.2°C 13.1°F-10.5°C 77% Calm Calm 16.0 mph25.7 kmh 30.38 in1028.8 mb 0.00 in0.0 mm 0.00 in/hr0.0 mm/hr 0.00 in0.0 mm
05:00 AM 18.9°F-7.3°C 12.9°F-10.6°C 77% 6.0 mph WNW9.7 kmh WNW 7.0 mph11.3 kmh 30.38 in1028.8 mb 0.00 in0.0 mm 0.00 in/hr0.0 mm/hr 0.00 in0.0 mm
05:10 AM 18.8°F-7.3°C 13.1°F-10.5°C 78% 3.0 mph WNW4.8 kmh WNW 11.0 mph17.7 kmh 30.38 in1028.8 mb 0.00 in0.0 mm 0.00 in/hr0.0 mm/hr 0.00 in0.0 mm
05:20 AM 19.0°F-7.2°C 13.3°F-10.4°C 78% 2.0 mph NW3.2 kmh NW 7.0 mph11.3 kmh 30.39 in1029.1 mb 0.00 in0.0 mm 0.00 in/hr0.0 mm/hr 0.00 in0.0 mm
05:30 AM 19.1°F-7.2°C 13.4°F-10.3°C 78% Calm Calm 7.0 mph11.3 kmh 30.38 in1028.8 mb 0.00 in0.0 mm 0.00 in/hr0.0 mm/hr 0.00 in0.0 mm
05:40 AM 19.2°F-7.1°C 13.5°F-10.3°C 78% 5.0 mph W8.0 kmh W 7.0 mph11.3 kmh 30.38 in1028.8 mb 0.00 in0.0 mm 0.00 in/hr0.0 mm/hr 0.00 in0.0 mm
05:50 AM 19.1°F-7.2°C 13.4°F-10.3°C 78% 3.0 mph NW4.8 kmh NW 5.0 mph8.0 kmh 30.39 in1029.1 mb 0.00 in0.0 mm 0.00 in/hr0.0 mm/hr 0.00 in0.0 mm
06:00 AM 19.2°F-7.1°C 13.5°F-10.3°C 78% 1.0 mph W1.6 kmh W 10.0 mph16.1 kmh 30.39 in1029.1 mb 0.00 in0.0 mm 0.00 in/hr0.0 mm/hr 0.00 in0.0 mm
06:10 AM 19.1°F-7.2°C 13.4°F-10.3°C 78% 4.0 mph W6.4 kmh W 11.0 mph17.7 kmh 30.39 in1029.1 mb 0.00 in0.0 mm 0.00 in/hr0.0 mm/hr 0.00 in0.0 mm
06:20 AM 18.9°F-7.3°C 13.5°F-10.3°C 79% 5.0 mph WSW8.0 kmh WSW 10.0 mph16.1 kmh 30.39 in1029.1 mb 0.00 in0.0 mm 0.00 in/hr0.0 mm/hr 0.00 in0.0 mm
06:30 AM 18.9°F-7.3°C 13.5°F-10.3°C 79% 4.0 mph WNW6.4 kmh WNW 12.0 mph19.3 kmh 30.39 in1029.1 mb 0.00 in0.0 mm 0.00 in/hr0.0 mm/hr 0.00 in0.0 mm
06:40 AM 18.6°F-7.4°C 13.2°F-10.4°C 79% 4.0 mph W6.4 kmh W 10.0 mph16.1 kmh 30.39 in1029.1 mb 0.00 in0.0 mm 0.00 in/hr0.0 mm/hr 0.00 in0.0 mm
06:50 AM 18.2°F-7.7°C 13.1°F-10.5°C 80% Calm Calm 7.0 mph11.3 kmh 30.39 in1029.1 mb 0.00 in0.0 mm 0.00 in/hr0.0 mm/hr 0.00 in0.0 mm
07:00 AM 17.8°F-7.9°C 12.7°F-10.7°C 80% 4.0 mph WNW6.4 kmh WNW 11.0 mph17.7 kmh 30.39 in1029.1 mb 0.00 in0.0 mm 0.00 in/hr0.0 mm/hr 0.00 in0.0 mm
07:10 AM 17.7°F-7.9°C 12.6°F-10.8°C 80% Calm Calm 10.0 mph16.1 kmh 30.39 in1029.1 mb 0.00 in0.0 mm 0.00 in/hr0.0 mm/hr 0.00 in0.0 mm
07:20 AM 17.4°F-8.1°C 12.6°F-10.8°C 81% 6.0 mph WSW9.7 kmh WSW 7.0 mph11.3 kmh 30.39 in1029.1 mb 0.00 in0.0 mm 0.00 in/hr0.0 mm/hr 0.00 in0.0 mm
07:30 AM 17.2°F-8.2°C 12.7°F-10.7°C 82% 2.0 mph W3.2 kmh W 5.0 mph8.0 kmh 30.40 in1029.5 mb 0.00 in0.0 mm 0.00 in/hr0.0 mm/hr 0.00 in0.0 mm
07:40 AM 17.3°F-8.2°C 12.8°F-10.7°C 82% 4.0 mph WNW6.4 kmh WNW 13.0 mph20.9 kmh 30.40 in1029.5 mb 0.00 in0.0 mm 0.00 in/hr0.0 mm/hr 0.00 in0.0 mm
07:50 AM 17.3°F-8.2°C 12.8°F-10.7°C 82% 1.0 mph W1.6 kmh W 12.0 mph19.3 kmh 30.40 in1029.5 mb 0.00 in0.0 mm 0.00 in/hr0.0 mm/hr 0.00 in0.0 mm
08:00 AM 17.2°F-8.2°C 12.7°F-10.7°C 82% 3.0 mph W4.8 kmh W 10.0 mph16.1 kmh 30.41 in1029.8 mb 0.00 in0.0 mm 0.00 in/hr0.0 mm/hr 0.00 in0.0 mm
08:10 AM 17.6°F-8.0°C 13.1°F-10.5°C 82% 5.0 mph W8.0 kmh W 12.0 mph19.3 kmh 30.41 in1029.8 mb 0.00 in0.0 mm 0.00 in/hr0.0 mm/hr 0.00 in0.0 mm
08:20 AM 17.5°F-8.1°C 12.7°F-10.7°C 81% 3.0 mph W4.8 kmh W 14.0 mph22.5 kmh 30.41 in1029.8 mb 0.00 in0.0 mm 0.00 in/hr0.0 mm/hr 0.00 in0.0 mm
08:30 AM 17.7°F-7.9°C 12.9°F-10.6°C 81% 7.0 mph W11.3 kmh W 11.0 mph17.7 kmh 30.42 in1030.1 mb 0.00 in0.0 mm 0.00 in/hr0.0 mm/hr 0.00 in0.0 mm
08:40 AM 18.0°F-7.8°C 13.2°F-10.4°C 81% 4.0 mph W6.4 kmh W 7.0 mph11.3 kmh 30.43 in1030.5 mb 0.00 in0.0 mm 0.00 in/hr0.0 mm/hr 0.00 in0.0 mm
08:50 AM 18.1°F-7.7°C 13.0°F-10.6°C 80% 10.0 mph W16.1 kmh W 12.0 mph19.3 kmh 30.43 in1030.5 mb 0.00 in0.0 mm 0.00 in/hr0.0 mm/hr 0.00 in0.0 mm
09:00 AM 18.4°F-7.6°C 13.3°F-10.4°C 80% 3.0 mph W4.8 kmh W 11.0 mph17.7 kmh 30.43 in1030.5 mb 0.00 in0.0 mm 0.00 in/hr0.0 mm/hr 0.00 in0.0 mm
09:10 AM 18.2°F-7.7°C 12.8°F-10.7°C 79% 6.0 mph N9.7 kmh N 12.0 mph19.3 kmh 30.44 in1030.8 mb 0.00 in0.0 mm 0.00 in/hr0.0 mm/hr 0.00 in0.0 mm
09:20 AM 18.6°F-7.4°C 13.5°F-10.3°C 80% 3.0 mph NW4.8 kmh NW 11.0 mph17.7 kmh 30.44 in1030.8 mb 0.00 in0.0 mm 0.00 in/hr0.0 mm/hr 0.00 in0.0 mm
09:30 AM 18.8°F-7.3°C 13.1°F-10.5°C 78% 5.0 mph NW8.0 kmh NW 10.0 mph16.1 kmh 30.44 in1030.8 mb 0.00 in0.0 mm 0.00 in/hr0.0 mm/hr 0.00 in0.0 mm
09:40 AM 19.0°F-7.2°C 13.3°F-10.4°C 78% 7.0 mph W11.3 kmh W 11.0 mph17.7 kmh 30.45 in1031.2 mb 0.00 in0.0 mm 0.00 in/hr0.0 mm/hr 0.00 in0.0 mm
09:51 AM 19.2°F-7.1°C 13.5°F-10.3°C 78% 13.0 mph WSW20.9 kmh WSW 13.0 mph20.9 kmh 30.45 in1031.2 mb 0.00 in0.0 mm 0.00 in/hr0.0 mm/hr 0.00 in0.0 mm
10:01 AM 19.4°F-7.0°C 13.4°F-10.3°C 77% 4.0 mph WSW6.4 kmh WSW 7.0 mph11.3 kmh 30.46 in1031.5 mb 0.00 in0.0 mm 0.00 in/hr0.0 mm/hr 0.00 in0.0 mm
10:10 AM 19.9°F-6.7°C 13.3°F-10.4°C 75% 5.0 mph W8.0 kmh W 8.0 mph12.9 kmh 30.46 in1031.5 mb 0.00 in0.0 mm 0.00 in/hr0.0 mm/hr 0.00 in0.0 mm
10:20 AM 20.2°F-6.6°C 13.6°F-10.2°C 75% 3.0 mph NW4.8 kmh NW 12.0 mph19.3 kmh 30.46 in1031.5 mb 0.00 in0.0 mm 0.00 in/hr0.0 mm/hr 0.00 in0.0 mm
10:30 AM 21.2°F-6.0°C 14.2°F-9.9°C 74% 7.0 mph WNW11.3 kmh WNW 12.0 mph19.3 kmh 30.46 in1031.5 mb 0.00 in0.0 mm 0.00 in/hr0.0 mm/hr 0.00 in0.0 mm
10:40 AM 20.9°F-6.2°C 13.9°F-10.1°C 74% 7.0 mph W11.3 kmh W 14.0 mph22.5 kmh 30.47 in1031.8 mb 0.00 in0.0 mm 0.00 in/hr0.0 mm/hr 0.00 in0.0 mm
10:50 AM 22.1°F-5.5°C 14.5°F-9.7°C 72% 5.0 mph NW8.0 kmh NW 9.0 mph14.5 kmh 30.47 in1031.8 mb 0.00 in0.0 mm 0.00 in/hr0.0 mm/hr 0.00 in0.0 mm
11:00 AM 23.0°F-5.0°C 15.0°F-9.4°C 71% 4.0 mph W6.4 kmh W 14.0 mph22.5 kmh 30.47 in1031.8 mb 0.00 in0.0 mm 0.00 in/hr0.0 mm/hr 0.00 in0.0 mm
11:10 AM 23.7°F-4.6°C 15.4°F-9.2°C 70% Calm Calm 17.0 mph27.4 kmh 30.46 in1031.5 mb 0.00 in0.0 mm 0.00 in/hr0.0 mm/hr 0.00 in0.0 mm
11:20 AM 23.5°F-4.7°C 15.2°F-9.3°C 70% 3.0 mph NW4.8 kmh NW 12.0 mph19.3 kmh 30.47 in1031.8 mb 0.00 in0.0 mm 0.00 in/hr0.0 mm/hr 0.00 in0.0 mm
11:30 AM 23.9°F-4.5°C 14.2°F-9.9°C 66% 8.0 mph NW12.9 kmh NW 12.0 mph19.3 kmh 30.47 in1031.8 mb 0.00 in0.0 mm 0.00 in/hr0.0 mm/hr 0.00 in0.0 mm
11:40 AM 25.1°F-3.8°C 16.0°F-8.9°C 68% 15.0 mph W24.1 kmh W 17.0 mph27.4 kmh 30.47 in1031.8 mb 0.00 in0.0 mm 0.00 in/hr0.0 mm/hr 0.00 in0.0 mm
11:50 AM 25.0°F-3.9°C 14.6°F-9.7°C 64% 7.0 mph WNW11.3 kmh WNW 16.0 mph25.7 kmh 30.46 in1031.5 mb 0.00 in0.0 mm 0.00 in/hr0.0 mm/hr 0.00 in0.0 mm
12:01 PM 25.3°F-3.7°C 14.8°F-9.6°C 64% 5.0 mph W8.0 kmh W 14.0 mph22.5 kmh 30.46 in1031.5 mb 0.00 in0.0 mm 0.00 in/hr0.0 mm/hr 0.00 in0.0 mm
12:10 PM 26.5°F-3.1°C 16.3°F-8.7°C 65% 3.0 mph W4.8 kmh W 19.0 mph30.6 kmh 30.46 in1031.5 mb 0.00 in0.0 mm 0.00 in/hr0.0 mm/hr 0.00 in0.0 mm
12:20 PM 25.8°F-3.4°C 15.3°F-9.3°C 64% 6.0 mph W9.7 kmh W 16.0 mph25.7 kmh 30.45 in1031.2 mb 0.00 in0.0 mm 0.00 in/hr0.0 mm/hr 0.00 in0.0 mm
12:30 PM 24.9°F-3.9°C 14.5°F-9.7°C 64% 11.0 mph N17.7 kmh N 15.0 mph24.1 kmh 30.45 in1031.2 mb 0.00 in0.0 mm 0.00 in/hr0.0 mm/hr 0.00 in0.0 mm
12:40 PM 24.2°F-4.3°C 14.2°F-9.9°C 65% 8.0 mph WNW12.9 kmh WNW 12.0 mph19.3 kmh 30.44 in1030.8 mb 0.00 in0.0 mm 0.00 in/hr0.0 mm/hr 0.00 in0.0 mm
12:50 PM 24.7°F-4.1°C 13.9°F-10.1°C 63% 9.0 mph NW14.5 kmh NW 14.0 mph22.5 kmh 30.44 in1030.8 mb 0.00 in0.0 mm 0.00 in/hr0.0 mm/hr 0.00 in0.0 mm
01:00 PM 25.0°F-3.9°C 14.6°F-9.7°C 64% 1.0 mph NNW1.6 kmh NNW 12.0 mph19.3 kmh 30.44 in1030.8 mb 0.00 in0.0 mm 0.00 in/hr0.0 mm/hr 0.00 in0.0 mm
01:10 PM 25.4°F-3.7°C 14.2°F-9.9°C 62% 3.0 mph WNW4.8 kmh WNW 17.0 mph27.4 kmh 30.44 in1030.8 mb 0.00 in0.0 mm 0.00 in/hr0.0 mm/hr 0.00 in0.0 mm
01:20 PM 25.3°F-3.7°C 14.1°F-9.9°C 62% 5.0 mph WSW8.0 kmh WSW 13.0 mph20.9 kmh 30.43 in1030.5 mb 0.00 in0.0 mm 0.00 in/hr0.0 mm/hr 0.00 in0.0 mm
01:30 PM 27.4°F-2.6°C 15.7°F-9.1°C 61% 5.0 mph W8.0 kmh W 21.0 mph33.8 kmh 30.43 in1030.5 mb 0.00 in0.0 mm 0.00 in/hr0.0 mm/hr 0.00 in0.0 mm
01:40 PM 27.5°F-2.5°C 15.1°F-9.4°C 59% 9.0 mph W14.5 kmh W 15.0 mph24.1 kmh 30.42 in1030.1 mb 0.00 in0.0 mm 0.00 in/hr0.0 mm/hr 0.00 in0.0 mm
01:50 PM 26.0°F-3.3°C 13.7°F-10.2°C 59% 6.0 mph WNW9.7 kmh WNW 12.0 mph19.3 kmh 30.42 in1030.1 mb 0.00 in0.0 mm 0.00 in/hr0.0 mm/hr 0.00 in0.0 mm
02:00 PM 27.0°F-2.8°C 13.8°F-10.1°C 57% 4.0 mph NW6.4 kmh NW 15.0 mph24.1 kmh 30.41 in1029.8 mb 0.00 in0.0 mm 0.00 in/hr0.0 mm/hr 0.00 in0.0 mm
02:10 PM 28.2°F-2.1°C 14.9°F-9.5°C 57% 15.0 mph W24.1 kmh W 18.0 mph29.0 kmh 30.40 in1029.5 mb 0.00 in0.0 mm 0.00 in/hr0.0 mm/hr 0.00 in0.0 mm
02:20 PM 28.5°F-1.9°C 14.8°F-9.6°C 56% 14.0 mph W22.5 kmh W 15.0 mph24.1 kmh 30.41 in1029.8 mb 0.00 in0.0 mm 0.00 in/hr0.0 mm/hr 0.00 in0.0 mm
02:30 PM 27.5°F-2.5°C 13.5°F-10.3°C 55% 10.0 mph W16.1 kmh W 16.0 mph25.7 kmh 30.41 in1029.8 mb 0.00 in0.0 mm 0.00 in/hr0.0 mm/hr 0.00 in0.0 mm
02:40 PM 27.6°F-2.4°C 13.1°F-10.5°C 54% 16.0 mph W25.7 kmh W 18.0 mph29.0 kmh 30.40 in1029.5 mb 0.00 in0.0 mm 0.00 in/hr0.0 mm/hr 0.00 in0.0 mm
02:50 PM 28.0°F-2.2°C 13.9°F-10.1°C 55% 12.0 mph WSW19.3 kmh WSW 15.0 mph24.1 kmh 30.40 in1029.5 mb 0.00 in0.0 mm 0.00 in/hr0.0 mm/hr 0.00 in0.0 mm
03:00 PM 27.5°F-2.5°C 13.5°F-10.3°C 55% 9.0 mph W14.5 kmh W 11.0 mph17.7 kmh 30.39 in1029.1 mb 0.00 in0.0 mm 0.00 in/hr0.0 mm/hr 0.00 in0.0 mm
03:10 PM 28.8°F-1.8°C 13.8°F-10.1°C 53% 12.0 mph W19.3 kmh W 13.0 mph20.9 kmh 30.39 in1029.1 mb 0.00 in0.0 mm 0.00 in/hr0.0 mm/hr 0.00 in0.0 mm
03:20 PM 28.6°F-1.9°C 14.9°F-9.5°C 56% 3.0 mph SW4.8 kmh SW 9.0 mph14.5 kmh 30.39 in1029.1 mb 0.00 in0.0 mm 0.00 in/hr0.0 mm/hr 0.00 in0.0 mm
03:30 PM 28.3°F-2.1°C 13.8°F-10.1°C 54% 6.0 mph SW9.7 kmh SW 12.0 mph19.3 kmh 30.39 in1029.1 mb 0.00 in0.0 mm 0.00 in/hr0.0 mm/hr 0.00 in0.0 mm
03:40 PM 27.6°F-2.4°C 12.3°F-10.9°C 52% 4.0 mph WNW6.4 kmh WNW 12.0 mph19.3 kmh 30.40 in1029.5 mb 0.00 in0.0 mm 0.00 in/hr0.0 mm/hr 0.00 in0.0 mm
03:50 PM 27.5°F-2.5°C 13.5°F-10.3°C 55% 4.0 mph SW6.4 kmh SW 9.0 mph14.5 kmh 30.40 in1029.5 mb 0.00 in0.0 mm 0.00 in/hr0.0 mm/hr 0.00 in0.0 mm
04:01 PM 27.5°F-2.5°C 12.2°F-11.0°C 52% 6.0 mph W9.7 kmh W 10.0 mph16.1 kmh 30.40 in1029.5 mb 0.00 in0.0 mm 0.00 in/hr0.0 mm/hr 0.00 in0.0 mm
04:10 PM 27.1°F-2.7°C 12.3°F-10.9°C 53% 4.0 mph WSW6.4 kmh WSW 12.0 mph19.3 kmh 30.41 in1029.8 mb 0.00 in0.0 mm 0.00 in/hr0.0 mm/hr 0.00 in0.0 mm
04:20 PM 26.2°F-3.2°C 11.4°F-11.4°C 53% 4.0 mph WSW6.4 kmh WSW 13.0 mph20.9 kmh 30.41 in1029.8 mb 0.00 in0.0 mm 0.00 in/hr0.0 mm/hr 0.00 in0.0 mm
04:30 PM 25.8°F-3.4°C 11.9°F-11.2°C 55% 7.0 mph W11.3 kmh W 16.0 mph25.7 kmh 30.41 in1029.8 mb 0.00 in0.0 mm 0.00 in/hr0.0 mm/hr 0.00 in0.0 mm
04:40 PM 25.6°F-3.6°C 12.1°F-11.1°C 56% 5.0 mph SW8.0 kmh SW 13.0 mph20.9 kmh 30.40 in1029.5 mb 0.00 in0.0 mm 0.00 in/hr0.0 mm/hr 0.00 in0.0 mm
04:50 PM 25.3°F-3.7°C 11.8°F-11.2°C 56% 2.0 mph W3.2 kmh W 12.0 mph19.3 kmh 30.40 in1029.5 mb 0.00 in0.0 mm 0.00 in/hr0.0 mm/hr 0.00 in0.0 mm
05:00 PM 25.1°F-3.8°C 11.6°F-11.3°C 56% 4.0 mph WSW6.4 kmh WSW 12.0 mph19.3 kmh 30.42 in1030.1 mb 0.00 in0.0 mm 0.00 in/hr0.0 mm/hr 0.00 in0.0 mm
05:10 PM 24.8°F-4.0°C 11.3°F-11.5°C 56% 2.0 mph WNW3.2 kmh WNW 10.0 mph16.1 kmh 30.41 in1029.8 mb 0.00 in0.0 mm 0.00 in/hr0.0 mm/hr 0.00 in0.0 mm
05:20 PM 24.5°F-4.2°C 11.5°F-11.4°C 57% 10.0 mph W16.1 kmh W 10.0 mph16.1 kmh 30.41 in1029.8 mb 0.00 in0.0 mm 0.00 in/hr0.0 mm/hr 0.00 in0.0 mm
05:30 PM 24.2°F-4.3°C 12.0°F-11.1°C 59% Calm Calm 4.0 mph6.4 kmh 30.41 in1029.8 mb 0.00 in0.0 mm 0.00 in/hr0.0 mm/hr 0.00 in0.0 mm
05:40 PM 24.0°F-4.4°C 12.5°F-10.8°C 61% 1.0 mph WSW1.6 kmh WSW 7.0 mph11.3 kmh 30.41 in1029.8 mb 0.00 in0.0 mm 0.00 in/hr0.0 mm/hr 0.00 in0.0 mm
05:50 PM 23.7°F-4.6°C 11.5°F-11.4°C 59% 3.0 mph WSW4.8 kmh WSW 10.0 mph16.1 kmh 30.41 in1029.8 mb 0.00 in0.0 mm 0.00 in/hr0.0 mm/hr 0.00 in0.0 mm
06:00 PM 23.3°F-4.8°C 11.5°F-11.4°C 60% 5.0 mph WSW8.0 kmh WSW 9.0 mph14.5 kmh 30.42 in1030.1 mb 0.00 in0.0 mm 0.00 in/hr0.0 mm/hr 0.00 in0.0 mm
06:10 PM 22.9°F-5.1°C 11.1°F-11.6°C 60% Calm Calm 7.0 mph11.3 kmh 30.42 in1030.1 mb 0.00 in0.0 mm 0.00 in/hr0.0 mm/hr 0.00 in0.0 mm
06:20 PM 22.6°F-5.2°C 11.2°F-11.6°C 61% 1.0 mph WSW1.6 kmh WSW 6.0 mph9.7 kmh 30.41 in1029.8 mb 0.00 in0.0 mm 0.00 in/hr0.0 mm/hr 0.00 in0.0 mm
06:30 PM 22.5°F-5.3°C 10.7°F-11.8°C 60% Calm Calm 3.0 mph4.8 kmh 30.41 in1029.8 mb 0.00 in0.0 mm 0.00 in/hr0.0 mm/hr 0.00 in0.0 mm
06:40 PM 22.2°F-5.4°C 10.4°F-12.0°C 60% Calm Calm 3.0 mph4.8 kmh 30.42 in1030.1 mb 0.00 in0.0 mm 0.00 in/hr0.0 mm/hr 0.00 in0.0 mm
06:50 PM 22.1°F-5.5°C 10.7°F-11.8°C 61% Calm Calm 4.0 mph6.4 kmh 30.42 in1030.1 mb 0.00 in0.0 mm 0.00 in/hr0.0 mm/hr 0.00 in0.0 mm
07:00 PM 22.0°F-5.6°C 11.0°F-11.7°C 62% Calm Calm 2.0 mph3.2 kmh 30.41 in1029.8 mb 0.00 in0.0 mm 0.00 in/hr0.0 mm/hr 0.00 in0.0 mm
07:10 PM 21.8°F-5.7°C 10.8°F-11.8°C 62% Calm Calm 4.0 mph6.4 kmh 30.41 in1029.8 mb 0.00 in0.0 mm 0.00 in/hr0.0 mm/hr 0.00 in0.0 mm
07:20 PM 21.2°F-6.0°C 10.9°F-11.7°C 64% Calm Calm 2.0 mph3.2 kmh 30.41 in1029.8 mb 0.00 in0.0 mm 0.00 in/hr0.0 mm/hr 0.00 in0.0 mm
07:30 PM 21.3°F-5.9°C 11.4°F-11.4°C 65% Calm Calm 2.0 mph3.2 kmh 30.41 in1029.8 mb 0.00 in0.0 mm 0.00 in/hr0.0 mm/hr 0.00 in0.0 mm
07:40 PM 21.0°F-6.1°C 11.1°F-11.6°C 65% Calm Calm -- 30.41 in1029.8 mb 0.00 in0.0 mm 0.00 in/hr0.0 mm/hr 0.00 in0.0 mm
07:50 PM 20.7°F-6.3°C 11.5°F-11.4°C 67% Calm Calm -- 30.40 in1029.5 mb 0.00 in0.0 mm 0.00 in/hr0.0 mm/hr 0.00 in0.0 mm
08:00 PM 19.6°F-6.9°C 11.4°F-11.4°C 70% Calm Calm -- 30.40 in1029.5 mb 0.00 in0.0 mm 0.00 in/hr0.0 mm/hr 0.00 in0.0 mm
08:10 PM 19.1°F-7.2°C 10.9°F-11.7°C 70% Calm Calm -- 30.40 in1029.5 mb 0.00 in0.0 mm 0.00 in/hr0.0 mm/hr 0.00 in0.0 mm
08:20 PM 19.1°F-7.2°C 11.6°F-11.3°C 72% Calm Calm -- 30.39 in1029.1 mb 0.00 in0.0 mm 0.00 in/hr0.0 mm/hr 0.00 in0.0 mm
08:30 PM 18.5°F-7.5°C 11.6°F-11.3°C 74% Calm Calm -- 30.38 in1028.8 mb 0.00 in0.0 mm 0.00 in/hr0.0 mm/hr 0.00 in0.0 mm
08:40 PM 18.5°F-7.5°C 11.6°F-11.3°C 74% Calm Calm 1.0 mph1.6 kmh 30.38 in1028.8 mb 0.00 in0.0 mm 0.00 in/hr0.0 mm/hr 0.00 in0.0 mm
08:50 PM 18.8°F-7.3°C 11.9°F-11.2°C 74% Calm Calm 1.0 mph1.6 kmh 30.38 in1028.8 mb 0.00 in0.0 mm 0.00 in/hr0.0 mm/hr 0.00 in0.0 mm
09:00 PM 19.0°F-7.2°C 12.1°F-11.1°C 74% Calm Calm 1.0 mph1.6 kmh 30.37 in1028.4 mb 0.00 in0.0 mm 0.00 in/hr0.0 mm/hr 0.00 in0.0 mm
09:20 PM 19.1°F-7.2°C 11.9°F-11.2°C 73% Calm Calm 1.0 mph1.6 kmh 30.36 in1028.1 mb 0.00 in0.0 mm 0.00 in/hr0.0 mm/hr 0.00 in0.0 mm
09:30 PM 19.3°F-7.1°C 12.4°F-10.9°C 74% Calm Calm 1.0 mph1.6 kmh 30.36 in1028.1 mb 0.00 in0.0 mm 0.00 in/hr0.0 mm/hr 0.00 in0.0 mm
09:40 PM 19.3°F-7.1°C 12.4°F-10.9°C 74% 1.0 mph SSW1.6 kmh SSW 2.0 mph3.2 kmh 30.35 in1027.8 mb 0.00 in0.0 mm 0.00 in/hr0.0 mm/hr 0.00 in0.0 mm
09:50 PM 19.5°F-6.9°C 12.3°F-10.9°C 73% Calm Calm 3.0 mph4.8 kmh 30.34 in1027.4 mb 0.00 in0.0 mm 0.00 in/hr0.0 mm/hr 0.00 in0.0 mm
10:01 PM 20.0°F-6.7°C 12.1°F-11.1°C 71% Calm Calm 3.0 mph4.8 kmh 30.34 in1027.4 mb 0.00 in0.0 mm 0.00 in/hr0.0 mm/hr 0.00 in0.0 mm
10:10 PM 20.4°F-6.4°C 11.9°F-11.2°C 69% 1.0 mph S1.6 kmh S 2.0 mph3.2 kmh 30.34 in1027.4 mb 0.00 in0.0 mm 0.00 in/hr0.0 mm/hr 0.00 in0.0 mm
10:20 PM 20.7°F-6.3°C 12.2°F-11.0°C 69% 1.0 mph S1.6 kmh S 5.0 mph8.0 kmh 30.34 in1027.4 mb 0.00 in0.0 mm 0.00 in/hr0.0 mm/hr 0.00 in0.0 mm
10:30 PM 20.9°F-6.2°C 12.4°F-10.9°C 69% 2.0 mph S3.2 kmh S 4.0 mph6.4 kmh 30.34 in1027.4 mb 0.00 in0.0 mm 0.00 in/hr0.0 mm/hr 0.00 in0.0 mm
10:40 PM 21.0°F-6.1°C 12.4°F-10.9°C 69% Calm Calm 4.0 mph6.4 kmh 30.33 in1027.1 mb 0.00 in0.0 mm 0.00 in/hr0.0 mm/hr 0.00 in0.0 mm
10:50 PM 21.0°F-6.1°C 12.8°F-10.7°C 70% 4.0 mph S6.4 kmh S 7.0 mph11.3 kmh 30.32 in1026.8 mb 0.00 in0.0 mm 0.00 in/hr0.0 mm/hr 0.00 in0.0 mm
11:00 PM 21.4°F-5.9°C 12.8°F-10.7°C 69% 4.0 mph SSW6.4 kmh SSW 7.0 mph11.3 kmh 30.32 in1026.8 mb 0.00 in0.0 mm 0.00 in/hr0.0 mm/hr 0.00 in0.0 mm
11:10 PM 21.4°F-5.9°C 13.2°F-10.4°C 70% 3.0 mph SSW4.8 kmh SSW 5.0 mph8.0 kmh 30.31 in1026.4 mb 0.00 in0.0 mm 0.00 in/hr0.0 mm/hr 0.00 in0.0 mm
11:20 PM 21.3°F-5.9°C 12.7°F-10.7°C 69% 3.0 mph SE4.8 kmh SE 6.0 mph9.7 kmh 30.31 in1026.4 mb 0.00 in0.0 mm 0.00 in/hr0.0 mm/hr 0.00 in0.0 mm
11:30 PM 21.5°F-5.8°C 12.6°F-10.8°C 68% 2.0 mph SSE3.2 kmh SSE 6.0 mph9.7 kmh 30.31 in1026.4 mb 0.00 in0.0 mm 0.00 in/hr0.0 mm/hr 0.00 in0.0 mm
11:40 PM 21.5°F-5.8°C 12.9°F-10.6°C 69% 3.0 mph SE4.8 kmh SE 5.0 mph8.0 kmh 30.30 in1026.1 mb 0.00 in0.0 mm 0.00 in/hr0.0 mm/hr 0.00 in0.0 mm
11:50 PM 21.7°F-5.7°C 12.8°F-10.7°C 68% 4.0 mph SSE6.4 kmh SSE 7.0 mph11.3 kmh 30.30 in1026.1 mb 0.00 in0.0 mm 0.00 in/hr0.0 mm/hr 0.00 in0.0 mm